BAV1321 VVDL-VVTS
Flight info
| Callsign | BAV1321 |
|---|---|
| Flight time | 0h 26m |
| Altitude | 20000 |
| Route | VETOM1G VETOM VETOM5A |
| Aircraft | A321/M-SDE3FGHIRWY/LB1 |
Departure
| Time | 2026-04-29 22:48 |
|---|---|
| Airport | Lien Khuong Airport (VVDL) |
Arrival
| Time | 2026-04-29 23:15 |
|---|---|
| Airport | Tan Son Nhat International Airport (VVTS) |
| Time | Latitude | Longitude | Altitude | Speed | Heading |
|---|---|---|---|---|---|
| 2026-04-29 22:27 | 11.74998 | 108.36834 | 3161 ft | 0 kts | 175° |
| 2026-04-29 22:41 | 11.75007 | 108.36833 | 3161 ft | 2 kts | 175° |
| 2026-04-29 22:41 | 11.75022 | 108.36832 | 3161 ft | 2 kts | 175° |
| 2026-04-29 22:41 | 11.75038 | 108.36831 | 3161 ft | 2 kts | 187° |
| 2026-04-29 22:42 | 11.75052 | 108.36835 | 3161 ft | 2 kts | 211° |
| 2026-04-29 22:42 | 11.75063 | 108.36845 | 3161 ft | 2 kts | 232° |
| 2026-04-29 22:42 | 11.75070 | 108.36858 | 3161 ft | 2 kts | 253° |
| 2026-04-29 22:42 | 11.75072 | 108.36867 | 3161 ft | 1 kts | 266° |
| 2026-04-29 22:43 | 11.75072 | 108.36873 | 3161 ft | 0 kts | 268° |
| 2026-04-29 22:44 | 11.75072 | 108.36865 | 3161 ft | 3 kts | 268° |
| 2026-04-29 22:45 | 11.75073 | 108.36829 | 3161 ft | 5 kts | 301° |
| 2026-04-29 22:45 | 11.75128 | 108.36816 | 3161 ft | 10 kts | 349° |
| 2026-04-29 22:45 | 11.75176 | 108.36841 | 3161 ft | 7 kts | 82° |
| 2026-04-29 22:45 | 11.75179 | 108.36897 | 3161 ft | 8 kts | 87° |
| 2026-04-29 22:46 | 11.75183 | 108.36970 | 3161 ft | 11 kts | 87° |
| 2026-04-29 22:46 | 11.75189 | 108.37071 | 3161 ft | 17 kts | 86° |
| 2026-04-29 22:46 | 11.75196 | 108.37214 | 3161 ft | 23 kts | 87° |
| 2026-04-29 22:46 | 11.75206 | 108.37384 | 3161 ft | 24 kts | 87° |
| 2026-04-29 22:47 | 11.75215 | 108.37550 | 3161 ft | 22 kts | 86° |
| 2026-04-29 22:47 | 11.75263 | 108.37655 | 3161 ft | 14 kts | 12° |
| 2026-04-29 22:47 | 11.75356 | 108.37653 | 3161 ft | 11 kts | 338° |
| 2026-04-29 22:47 | 11.75380 | 108.37579 | 3161 ft | 13 kts | 266° |
| 2026-04-29 22:48 | 11.75366 | 108.37323 | 3161 ft | 72 kts | 266° |
| 2026-04-29 22:48 | 11.75328 | 108.36568 | 3161 ft | 140 kts | 267° |
| 2026-04-29 22:48 | 11.75268 | 108.35386 | 3243 ft | 185 kts | 266° |
| 2026-04-29 22:48 | 11.75191 | 108.34095 | 3967 ft | 183 kts | 265° |
| 2026-04-29 22:49 | 11.75116 | 108.32830 | 4787 ft | 179 kts | 267° |
| 2026-04-29 22:49 | 11.75070 | 108.31561 | 5319 ft | 184 kts | 268° |
| 2026-04-29 22:49 | 11.74999 | 108.30219 | 5699 ft | 193 kts | 267° |
| 2026-04-29 22:49 | 11.74920 | 108.28813 | 6001 ft | 208 kts | 268° |
| 2026-04-29 22:50 | 11.74839 | 108.27272 | 6309 ft | 224 kts | 268° |
| 2026-04-29 22:50 | 11.74754 | 108.25639 | 6614 ft | 240 kts | 268° |
| 2026-04-29 22:50 | 11.74658 | 108.23847 | 6856 ft | 262 kts | 268° |
| 2026-04-29 22:50 | 11.74555 | 108.21941 | 7217 ft | 281 kts | 268° |
| 2026-04-29 22:51 | 11.74445 | 108.19907 | 7791 ft | 290 kts | 268° |
| 2026-04-29 22:51 | 11.74332 | 108.17843 | 8557 ft | 293 kts | 268° |
| 2026-04-29 22:51 | 11.74121 | 108.13962 | 9987 ft | 299 kts | 267° |
| 2026-04-29 22:52 | 11.74004 | 108.11820 | 10639 ft | 307 kts | 266° |
| 2026-04-29 22:52 | 11.73563 | 108.09667 | 11187 ft | 319 kts | 246° |
| 2026-04-29 22:52 | 11.72329 | 108.07771 | 11919 ft | 322 kts | 225° |
| 2026-04-29 22:52 | 11.70742 | 108.06198 | 12699 ft | 324 kts | 222° |
| 2026-04-29 22:53 | 11.69079 | 108.04642 | 13450 ft | 327 kts | 221° |
| 2026-04-29 22:53 | 11.67388 | 108.03059 | 14193 ft | 330 kts | 222° |
| 2026-04-29 22:53 | 11.65723 | 108.01485 | 14906 ft | 332 kts | 222° |
| 2026-04-29 22:53 | 11.64021 | 107.99864 | 15613 ft | 335 kts | 223° |
| 2026-04-29 22:54 | 11.62332 | 107.98247 | 16293 ft | 338 kts | 223° |
| 2026-04-29 22:54 | 11.60609 | 107.96593 | 16974 ft | 341 kts | 223° |
| 2026-04-29 22:54 | 11.58896 | 107.94947 | 17624 ft | 343 kts | 223° |
| 2026-04-29 22:54 | 11.57147 | 107.93264 | 18272 ft | 346 kts | 223° |
| 2026-04-29 22:55 | 11.55393 | 107.91577 | 18889 ft | 349 kts | 223° |
| 2026-04-29 22:55 | 11.53641 | 107.89891 | 19471 ft | 352 kts | 223° |
| 2026-04-29 22:55 | 11.51842 | 107.88161 | 19855 ft | 355 kts | 223° |
| 2026-04-29 22:55 | 11.50060 | 107.86448 | 19987 ft | 356 kts | 223° |
| 2026-04-29 22:56 | 11.48251 | 107.84710 | 19961 ft | 355 kts | 223° |
| 2026-04-29 22:56 | 11.46471 | 107.82999 | 19951 ft | 355 kts | 223° |
| 2026-04-29 22:56 | 11.44671 | 107.81269 | 19947 ft | 355 kts | 223° |
| 2026-04-29 22:56 | 11.42893 | 107.79562 | 19945 ft | 355 kts | 223° |
| 2026-04-29 22:57 | 11.41088 | 107.77827 | 19944 ft | 355 kts | 223° |
| 2026-04-29 22:57 | 11.39307 | 107.76116 | 19822 ft | 355 kts | 223° |
| 2026-04-29 22:57 | 11.37502 | 107.74384 | 19532 ft | 353 kts | 223° |
| 2026-04-29 22:57 | 11.35738 | 107.72690 | 19237 ft | 351 kts | 223° |
| 2026-04-29 22:58 | 11.33958 | 107.70982 | 18859 ft | 349 kts | 223° |
| 2026-04-29 22:58 | 11.32213 | 107.69308 | 18456 ft | 347 kts | 223° |
| 2026-04-29 22:58 | 11.30454 | 107.67621 | 18037 ft | 345 kts | 223° |
| 2026-04-29 22:58 | 11.28735 | 107.65971 | 17619 ft | 342 kts | 223° |
| 2026-04-29 22:59 | 11.27001 | 107.64308 | 17193 ft | 340 kts | 223° |
| 2026-04-29 22:59 | 11.25301 | 107.62677 | 16767 ft | 338 kts | 223° |
| 2026-04-29 22:59 | 11.23586 | 107.61032 | 16334 ft | 336 kts | 223° |
| 2026-04-29 22:59 | 11.21907 | 107.59392 | 15910 ft | 335 kts | 224° |
| 2026-04-29 23:00 | 11.20256 | 107.57745 | 15490 ft | 333 kts | 224° |
| 2026-04-29 23:00 | 11.18627 | 107.56113 | 15074 ft | 331 kts | 224° |
| 2026-04-29 23:00 | 11.16983 | 107.54469 | 14652 ft | 330 kts | 224° |
| 2026-04-29 23:00 | 11.15334 | 107.52821 | 14229 ft | 328 kts | 224° |
| 2026-04-29 23:01 | 11.13726 | 107.51217 | 13816 ft | 327 kts | 224° |
| 2026-04-29 23:01 | 11.12101 | 107.49597 | 13397 ft | 325 kts | 224° |
| 2026-04-29 23:01 | 11.10506 | 107.48006 | 12987 ft | 323 kts | 224° |
| 2026-04-29 23:01 | 11.08896 | 107.46403 | 12571 ft | 321 kts | 224° |
| 2026-04-29 23:02 | 11.07317 | 107.44830 | 12163 ft | 320 kts | 224° |
| 2026-04-29 23:02 | 11.05723 | 107.43243 | 11751 ft | 318 kts | 224° |
| 2026-04-29 23:02 | 11.04164 | 107.41692 | 11348 ft | 316 kts | 224° |
| 2026-04-29 23:02 | 11.02617 | 107.40137 | 11000 ft | 311 kts | 227° |
| 2026-04-29 23:03 | 11.01375 | 107.38382 | 10939 ft | 300 kts | 242° |
| 2026-04-29 23:03 | 11.00592 | 107.36411 | 10941 ft | 305 kts | 252° |
| 2026-04-29 23:03 | 10.99978 | 107.34326 | 10931 ft | 306 kts | 254° |
| 2026-04-29 23:03 | 10.99398 | 107.32262 | 10796 ft | 307 kts | 254° |
| 2026-04-29 23:04 | 10.98786 | 107.30163 | 10290 ft | 309 kts | 253° |
| 2026-04-29 23:04 | 10.98171 | 107.28088 | 9772 ft | 310 kts | 253° |
| 2026-04-29 23:04 | 10.97608 | 107.26195 | 9318 ft | 310 kts | 253° |
| 2026-04-29 23:04 | 10.96995 | 107.24129 | 8969 ft | 305 kts | 253° |
| 2026-04-29 23:05 | 10.96383 | 107.22062 | 8548 ft | 303 kts | 254° |
| 2026-04-29 23:05 | 10.95777 | 107.20009 | 8091 ft | 302 kts | 253° |
| 2026-04-29 23:05 | 10.95180 | 107.17991 | 7687 ft | 300 kts | 253° |
| 2026-04-29 23:05 | 10.94579 | 107.15955 | 7299 ft | 297 kts | 253° |
| 2026-04-29 23:06 | 10.93986 | 107.13951 | 6929 ft | 293 kts | 253° |
| 2026-04-29 23:06 | 10.93407 | 107.11993 | 6565 ft | 290 kts | 253° |
| 2026-04-29 23:06 | 10.92826 | 107.10032 | 6199 ft | 287 kts | 253° |
| 2026-04-29 23:06 | 10.92259 | 107.08114 | 5840 ft | 284 kts | 253° |
| 2026-04-29 23:07 | 10.91690 | 107.06189 | 5480 ft | 281 kts | 253° |
| 2026-04-29 23:07 | 10.91137 | 107.04321 | 5133 ft | 278 kts | 253° |
| 2026-04-29 23:07 | 10.90579 | 107.02434 | 4782 ft | 276 kts | 253° |
| 2026-04-29 23:07 | 10.90041 | 107.00622 | 4687 ft | 262 kts | 253° |
| 2026-04-29 23:08 | 10.89525 | 106.98882 | 4643 ft | 248 kts | 253° |
| 2026-04-29 23:08 | 10.89043 | 106.97262 | 4587 ft | 235 kts | 253° |
| 2026-04-29 23:08 | 10.88585 | 106.95719 | 4520 ft | 221 kts | 252° |
| 2026-04-29 23:08 | 10.88144 | 106.94234 | 4425 ft | 217 kts | 252° |
| 2026-04-29 23:09 | 10.87712 | 106.92777 | 4273 ft | 216 kts | 252° |
| 2026-04-29 23:09 | 10.87275 | 106.91305 | 4110 ft | 216 kts | 253° |
| 2026-04-29 23:09 | 10.87091 | 106.89793 | 3863 ft | 217 kts | 274° |
| 2026-04-29 23:09 | 10.87298 | 106.88274 | 3455 ft | 222 kts | 280° |
| 2026-04-29 23:10 | 10.87589 | 106.86712 | 3095 ft | 223 kts | 280° |
| 2026-04-29 23:10 | 10.87867 | 106.85209 | 3027 ft | 214 kts | 279° |
| 2026-04-29 23:10 | 10.88126 | 106.83726 | 3025 ft | 213 kts | 279° |
| 2026-04-29 23:10 | 10.88216 | 106.82217 | 3018 ft | 212 kts | 262° |
| 2026-04-29 23:11 | 10.87925 | 106.80764 | 2940 ft | 211 kts | 251° |
| 2026-04-29 23:11 | 10.87442 | 106.79348 | 2689 ft | 210 kts | 247° |
| 2026-04-29 23:11 | 10.86920 | 106.78005 | 2500 ft | 200 kts | 246° |
| 2026-04-29 23:11 | 10.86416 | 106.76716 | 2207 ft | 189 kts | 247° |
| 2026-04-29 23:12 | 10.85962 | 106.75530 | 1963 ft | 175 kts | 247° |
| 2026-04-29 23:12 | 10.85539 | 106.74408 | 1700 ft | 163 kts | 247° |
| 2026-04-29 23:12 | 10.85152 | 106.73379 | 1465 ft | 151 kts | 248° |
| 2026-04-29 23:12 | 10.84778 | 106.72389 | 1266 ft | 148 kts | 248° |
| 2026-04-29 23:13 | 10.84410 | 106.71416 | 1087 ft | 148 kts | 248° |
| 2026-04-29 23:13 | 10.84038 | 106.70430 | 900 ft | 148 kts | 248° |
| 2026-04-29 23:13 | 10.83672 | 106.69460 | 708 ft | 148 kts | 248° |
| 2026-04-29 23:13 | 10.83302 | 106.68479 | 509 ft | 147 kts | 248° |
| 2026-04-29 23:14 | 10.82939 | 106.67515 | 312 ft | 147 kts | 248° |
| 2026-04-29 23:14 | 10.82576 | 106.66554 | 120 ft | 146 kts | 248° |
| 2026-04-29 23:14 | 10.82217 | 106.65603 | 31 ft | 133 kts | 248° |
| 2026-04-29 23:14 | 10.81948 | 106.64893 | 34 ft | 84 kts | 249° |
| 2026-04-29 23:15 | 10.81799 | 106.64500 | 30 ft | 36 kts | 248° |
| 2026-04-29 23:15 | 10.81665 | 106.64349 | 27 ft | 27 kts | 216° |
| 2026-04-29 23:15 | 10.81543 | 106.64297 | 26 ft | 18 kts | 168° |
| 2026-04-29 23:15 | 10.81427 | 106.64334 | 28 ft | 16 kts | 161° |
| 2026-04-29 23:16 | 10.81319 | 106.64374 | 29 ft | 16 kts | 158° |
| 2026-04-29 23:16 | 10.81252 | 106.64451 | 27 ft | 17 kts | 81° |
| 2026-04-29 23:16 | 10.81294 | 106.64570 | 25 ft | 18 kts | 69° |
| 2026-04-29 23:16 | 10.81340 | 106.64689 | 24 ft | 18 kts | 69° |
| 2026-04-29 23:17 | 10.81386 | 106.64811 | 24 ft | 18 kts | 69° |
| 2026-04-29 23:17 | 10.81434 | 106.64936 | 25 ft | 19 kts | 69° |
| 2026-04-29 23:17 | 10.81484 | 106.65067 | 26 ft | 20 kts | 69° |
| 2026-04-29 23:17 | 10.81535 | 106.65204 | 27 ft | 21 kts | 69° |
| 2026-04-29 23:18 | 10.81589 | 106.65346 | 29 ft | 21 kts | 69° |
| 2026-04-29 23:18 | 10.81643 | 106.65489 | 31 ft | 21 kts | 69° |
| 2026-04-29 23:18 | 10.81698 | 106.65636 | 32 ft | 22 kts | 68° |
| 2026-04-29 23:18 | 10.81722 | 106.65749 | 31 ft | 14 kts | 102° |
| 2026-04-29 23:19 | 10.81655 | 106.65797 | 31 ft | 13 kts | 208° |
| 2026-04-29 23:19 | 10.81612 | 106.65710 | 31 ft | 8 kts | 249° |
| 2026-04-29 23:19 | 10.81570 | 106.65700 | 31 ft | 7 kts | 157° |
| 2026-04-29 23:19 | 10.81541 | 106.65712 | 30 ft | 0 kts | 159° |